Flight Track Log - Related Links

Times and Time Zones

All times are in EDT time to prevent confusion due to time zone crossing. See the N123PA flight status page for this flight to view local times or setup timezone preferences in your user account.

Time Position Orientation Groundspeed Altitude Reporting Facility
EDT Latitude Longitude Course Direction KTS MPH feet Rate Location/Type
Wed 02:34:11 PM 38.6289 -82.9283 242° Southwest 117 135 5,900  Level Indianapolis Center
Wed 02:35:13 PM 38.5978 -82.9447 202° Southwest 119 137 6,400 435 Climbing Indianapolis Center
Wed 02:36:15 PM 38.5678 -82.9586 200° South 116 133 6,800 387 Climbing Indianapolis Center
Wed 02:37:17 PM 38.5358 -82.9725 199° South 120 138 7,200 336 Climbing Indianapolis Center
Wed 02:38:00 PM 38.6192 -82.9536 239° Southwest  Level Estimated
Wed 02:38:20 PM 38.5042 -82.9853 198° South 119 137 7,500  Level Indianapolis Center
Wed 02:39:00 PM 38.6008 -82.9982 242° Southwest  Level FlightAware Approximate
Wed 02:39:22 PM 38.4678 -83.0022 200° South 120 138 8,000  Level Indianapolis Center
Wed 02:40:24 PM 38.4350 -83.0178 200° South 124 143 8,100  Climbing Indianapolis Center
Wed 02:41:26 PM 38.3981 -83.0367 202° Southwest 139 160 8,000 -48 Descending Indianapolis Center
Wed 02:42:28 PM 38.3606 -83.0583 204° Southwest 147 169 8,000  Level Indianapolis Center
Wed 02:43:30 PM 38.3222 -83.0786 203° Southwest 148 170 8,000  Level Indianapolis Center
Wed 02:44:32 PM 38.2836 -83.0967 200° South 148 170 8,000  Level Indianapolis Center
Wed 02:45:34 PM 38.2400 -83.1169 200° South 143 165 8,000  Level Indianapolis Center
Wed 02:46:36 PM 38.2019 -83.1350 200° South 145 167 8,000  Level Indianapolis Center
Wed 02:47:38 PM 38.1636 -83.1553 203° Southwest 147 169 8,000  Level Indianapolis Center
Wed 02:48:40 PM 38.1264 -83.1725 200° South 145 167 8,000  Level Indianapolis Center
Wed 02:49:42 PM 38.0892 -83.1939 204° Southwest 145 167 8,000  Level Indianapolis Center
Wed 02:50:44 PM 38.0431 -83.2050 191° South 145 167 8,000  Level Indianapolis Center
Wed 02:51:46 PM 38.0033 -83.2164 193° South 146 168 8,000  Level Indianapolis Center
Wed 02:52:48 PM 37.9642 -83.2269 192° South 144 166 8,000  Level Indianapolis Center
Wed 02:53:50 PM 37.9267 -83.2389 194° South 141 162 8,000  Level Indianapolis Center
Wed 02:54:52 PM 37.8875 -83.2517 194° South 143 165 8,000  Level Indianapolis Center
Wed 02:55:55 PM 37.8436 -83.2683 197° South 141 162 8,000  Level Indianapolis Center
Wed 02:56:57 PM 37.8061 -83.2847 199° South 141 162 8,000  Level Indianapolis Center
Wed 02:57:59 PM 37.7706 -83.2992 198° South 137 158 8,000  Level Indianapolis Center
Wed 02:59:01 PM 37.7314 -83.2961 176° South 138 159 8,000  Level Indianapolis Center
Wed 03:00:03 PM 37.6919 -83.2925 176° South 141 162 8,000  Level Indianapolis Center
Wed 03:01:05 PM 37.6542 -83.2914 179° South 137 158 8,000  Level Indianapolis Center
Wed 03:02:07 PM 37.6086 -83.2900 179° South 139 160 8,000  Level Indianapolis Center
Wed 03:03:09 PM 37.5700 -83.2889 179° South 138 159 8,000  Level Indianapolis Center
Wed 03:04:11 PM 37.5317 -83.2858 176° South 138 159 8,000  Level Indianapolis Center
Wed 03:05:13 PM 37.4928 -83.2814 175° South 139 160 8,000  Level Indianapolis Center
Wed 03:06:15 PM 37.4542 -83.2764 174° South 138 159 8,000  Level Indianapolis Center
Wed 03:07:17 PM 37.4117 -83.2869 191° South 135 155 8,000  Level Indianapolis Center
Wed 03:08:19 PM 37.3858 -83.3233 228° Southwest 139 160 8,000  Level Indianapolis Center
Wed 03:09:21 PM 37.3589 -83.3581 226° Southwest 138 159 8,000  Level Indianapolis Center
Wed 03:10:23 PM 37.3328 -83.3925 226° Southwest 137 158 8,000  Level Indianapolis Center
Wed 03:11:25 PM 37.3056 -83.4278 226° Southwest 139 160 8,000  Level Indianapolis Center
Wed 03:12:27 PM 37.2708 -83.4664 222° Southwest 141 162 8,000  Level Indianapolis Center
Wed 03:13:30 PM 37.2406 -83.4986 220° Southwest 142 163 8,000  Level Indianapolis Center
Wed 03:14:32 PM 37.2111 -83.5314 222° Southwest 142 163 8,000  Level Indianapolis Center
Wed 03:15:34 PM 37.1764 -83.5539 207° Southwest 141 162 8,000  Level Indianapolis Center
Wed 03:16:36 PM 37.1425 -83.5789 210° Southwest 141 162 8,000  Level Indianapolis Center
Wed 03:17:38 PM 37.1011 -83.6075 209° Southwest 144 166 8,000  Level Indianapolis Center
Wed 03:18:40 PM 37.0639 -83.6289 205° Southwest 147 169 8,000  Level Indianapolis Center
Wed 03:19:42 PM 37.0269 -83.6519 206° Southwest 148 170 8,000  Level Indianapolis Center
Wed 03:20:44 PM 36.9908 -83.6747 207° Southwest 147 169 8,000  Level Indianapolis Center
Wed 03:21:46 PM 36.9553 -83.6953 205° Southwest 143 165 8,000  Level Indianapolis Center
Wed 03:22:48 PM 36.9128 -83.7214 206° Southwest 144 166 8,000  Level Indianapolis Center
Wed 03:23:50 PM 36.8753 -83.7358 197° South 141 162 8,000  Level Indianapolis Center
Wed 03:24:52 PM 36.8339 -83.7361 180° South 145 167 8,000  Level Indianapolis Center
Wed 03:25:54 PM 36.7931 -83.7350 179° South 146 168 8,000  Level Indianapolis Center
Wed 03:26:56 PM 36.7528 -83.7306 175° South 146 168 8,000  Level Indianapolis Center
Wed 03:27:59 PM 36.7061 -83.7267 176° South 145 167 8,000  Level Indianapolis Center
Wed 03:29:01 PM 36.6675 -83.7244 177° South 141 162 8,000  Level Indianapolis Center
Wed 03:30:03 PM 36.6300 -83.7228 178° South 137 158 8,000  Level Indianapolis Center
Wed 03:31:05 PM 36.5925 -83.7297 188° South 137 158 8,000  Level Indianapolis Center
Wed 03:32:07 PM 36.5583 -83.7492 205° Southwest 136 157 8,000  Level Indianapolis Center
Wed 03:33:09 PM 36.5192 -83.7731 206° Southwest 134 154 8,000  Level Indianapolis Center
Wed 03:34:11 PM 36.4869 -83.7922 206° Southwest 136 157 8,000  Level Indianapolis Center
Wed 03:35:13 PM 36.4533 -83.8139 207° Southwest 137 158 8,000  Level Indianapolis Center
Wed 03:36:15 PM 36.4189 -83.8356 207° Southwest 138 159 8,000  Level Indianapolis Center
Wed 03:37:17 PM 36.3758 -83.8608 205° Southwest 141 162 8,000  Level Indianapolis Center
Wed 03:38:19 PM 36.3411 -83.8822 206° Southwest 140 161 8,000  Level Indianapolis Center
Wed 03:39:21 PM 36.3058 -83.9042 207° Southwest 141 162 8,000  Level Indianapolis Center
Wed 03:40:23 PM 36.2728 -83.9256 208° Southwest 137 158 8,000  Level Indianapolis Center
Wed 03:41:25 PM 36.2389 -83.9461 206° Southwest 136 157 8,000 -3 Level Indianapolis Center
Wed 03:43:00 PM 36.1856 -83.9745 203° Southwest  Level FlightAware Approximate
Wed 03:50:00 PM 35.9343 -84.1080 203° Southwest  Level FlightAware Approximate
Wed 03:51:00 PM 35.8983 -84.1270 203° Southwest  Level FlightAware Approximate
Wed 03:52:00 PM 35.8624 -84.1460 203° Southwest  Level FlightAware Approximate
Wed 03:53:00 PM 35.8265 -84.1650 203° Southwest  Level FlightAware Approximate
Wed 03:54:00 PM 35.7906 -84.1840 203° Southwest  Level FlightAware Approximate
Wed 03:55:00 PM 35.7546 -84.2029 203° Southwest  Level FlightAware Approximate
Wed 03:56:00 PM 35.7187 -84.2218 203° Southwest  Level FlightAware Approximate
Wed 03:57:00 PM 35.6828 -84.2407 203° Southwest  Level FlightAware Approximate
Wed 03:58:00 PM 35.6468 -84.2596 203° Southwest  Level FlightAware Approximate
Wed 03:59:00 PM 35.6104 -84.2798 205° Southwest  Level FlightAware Approximate
Wed 04:00:00 PM 35.5750 -84.3001 205° Southwest  Level FlightAware Approximate
Wed 04:01:00 PM 35.5395 -84.3204 205° Southwest  Level FlightAware Approximate
Wed 04:02:00 PM 35.5041 -84.3407 205° Southwest  Level FlightAware Approximate
Wed 04:03:00 PM 35.4687 -84.3610 205° Southwest  Level FlightAware Approximate
Wed 04:04:00 PM 35.4333 -84.3812 205° Southwest  Level FlightAware Approximate
Wed 04:05:00 PM 35.3978 -84.4015 205° Southwest  Level FlightAware Approximate
Wed 04:06:00 PM 35.3624 -84.4217 205° Southwest  Level FlightAware Approximate
Wed 04:07:00 PM 35.3269 -84.4419 205° Southwest  Level FlightAware Approximate
Wed 04:08:00 PM 35.2915 -84.4620 205° Southwest  Level FlightAware Approximate
Wed 04:09:00 PM 35.2563 -84.4828 206° Southwest  Level FlightAware Approximate
Wed 04:10:00 PM 35.2211 -84.5038 206° Southwest  Level FlightAware Approximate
Wed 04:11:00 PM 35.1860 -84.5247 206° Southwest  Level FlightAware Approximate
Wed 04:12:00 PM 35.1509 -84.5456 206° Southwest  Level FlightAware Approximate
Wed 04:13:00 PM 35.1157 -84.5665 206° Southwest  Level FlightAware Approximate
Wed 04:14:00 PM 35.0806 -84.5873 206° Southwest  Level FlightAware Approximate
Wed 04:15:00 PM 35.0454 -84.6082 206° Southwest  Level FlightAware Approximate
Wed 04:16:00 PM 35.0103 -84.6291 206° Southwest  Level FlightAware Approximate
Wed 04:17:00 PM 34.9751 -84.6499 206° Southwest  Level FlightAware Approximate
Wed 04:18:00 PM 34.9399 -84.6707 206° Southwest  Level FlightAware Approximate
Wed 04:18:19 PM 34.9086 -84.7708 206° Southwest 146 168 7,900  Level Atlanta Center
Wed 04:19:00 PM 34.9048 -84.6915 206° Southwest  Level FlightAware Approximate
Wed 04:19:19 PM 34.8708 -84.7933 206° Southwest 146 168 7,900  Level Atlanta Center
Wed 04:20:00 PM 34.8696 -84.7122 206° Southwest  Level FlightAware Approximate
Wed 04:20:19 PM 34.8333 -84.8106 201° Southwest 149 171 7,900  Level Atlanta Center
Wed 04:21:00 PM 34.8344 -84.7330 206° Southwest  Level FlightAware Approximate
Wed 04:21:19 PM 34.7978 -84.8356 210° Southwest 149 171 7,900  Level Atlanta Center
Wed 04:22:00 PM 34.7992 -84.7537 206° Southwest  Level FlightAware Approximate
Wed 04:22:19 PM 34.7619 -84.8581 207° Southwest 149 171 7,900  Level Atlanta Center
Wed 04:23:19 PM 34.7203 -84.8778 201° Southwest 144 166 7,900  Level Atlanta Center
Wed 04:24:19 PM 34.6844 -84.9003 207° Southwest 144 166 7,900  Level Atlanta Center
Wed 04:25:19 PM 34.6489 -84.9175 202° Southwest 149 171 7,900  Level Atlanta Center
Wed 04:26:19 PM 34.6111 -84.9372 203° Southwest 149 171 7,900  Level Atlanta Center
Wed 04:27:19 PM 34.5756 -84.9569 205° Southwest 154 177 7,900  Level Atlanta Center
Wed 04:28:19 PM 34.5378 -84.9819 209° Southwest 154 177 7,900  Level Atlanta Center
Wed 04:29:19 PM 34.5022 -85.0042 207° Southwest 153 176 7,900  Level Atlanta Center
Wed 04:30:19 PM 34.4625 -85.0239 202° Southwest 153 176 7,900  Level Atlanta Center
Wed 04:31:19 PM 34.4225 -85.0436 202° Southwest 153 176 7,900  Level Atlanta Center
Wed 04:32:19 PM 34.3847 -85.0633 203° Southwest 153 176 7,900  Level Atlanta Center
Wed 04:33:19 PM 34.3472 -85.0828 203° Southwest 153 176 7,900  Level Atlanta Center
Wed 04:34:19 PM 34.3072 -85.1025 202° Southwest 153 176 7,900  Level Atlanta Center
Wed 04:35:19 PM 34.2697 -85.1172 198° South 153 176 7,900  Level Atlanta Center
Wed 04:36:19 PM 34.2297 -85.1342 199° South 158 182 7,900  Level Atlanta Center
Wed 04:37:19 PM 34.1942 -85.1514 202° Southwest 152 175 7,900  Level Atlanta Center
Wed 04:38:19 PM 34.1544 -85.1683 199° South 152 175 7,900  Level Atlanta Center
Wed 04:39:19 PM 34.1144 -85.1881 202° Southwest 152 175 7,900  Level Atlanta Center
Wed 04:40:19 PM 34.0767 -85.2050 200° South 152 175 7,900  Level Atlanta Center
Wed 04:41:19 PM 34.0369 -85.2244 202° Southwest 152 175 7,900  Level Atlanta Center
Wed 04:42:19 PM 34.0033 -85.2367 197° South 152 175 7,900  Level Atlanta Center
Wed 04:43:19 PM 33.9636 -85.2536 199° South 152 175 7,900  Level Atlanta Center
Wed 04:44:19 PM 33.9236 -85.2731 202° Southwest 152 175 7,900  Level Atlanta Center
Wed 04:45:19 PM 33.8861 -85.2900 201° Southwest 152 175 7,900  Level Atlanta Center
Wed 04:46:19 PM 33.8483 -85.3069 200° South 152 175 7,900  Level Atlanta Center
Wed 04:47:19 PM 33.8106 -85.3264 203° Southwest 152 175 7,900  Level Atlanta Center
Wed 04:48:19 PM 33.7728 -85.3433 200° South 152 175 7,900  Level Atlanta Center
Wed 04:49:19 PM 33.7350 -85.3628 203° Southwest 152 175 7,900  Level Atlanta Center
Wed 04:50:19 PM 33.6931 -85.3844 203° Southwest 158 182 7,900  Level Atlanta Center
Wed 04:51:19 PM 33.6553 -85.4039 203° Southwest 153 176 7,900  Level Atlanta Center
Wed 04:52:19 PM 33.6175 -85.4258 206° Southwest 153 176 7,900  Level Atlanta Center
Wed 04:53:19 PM 33.5836 -85.4478 208° Southwest 153 176 7,900  Level Atlanta Center
Wed 04:54:19 PM 33.5458 -85.4669 203° Southwest 153 176 7,900  Level Atlanta Center
Wed 04:55:19 PM 33.5103 -85.4839 202° Southwest 146 168 7,900  Level Atlanta Center
Wed 04:56:19 PM 33.4744 -85.5056 207° Southwest 146 168 7,900  Level Atlanta Center
Wed 04:57:19 PM 33.4389 -85.5250 205° Southwest 146 168 7,900  Level Atlanta Center
Wed 04:58:19 PM 33.4053 -85.5469 209° Southwest 146 168 7,900  Level Atlanta Center
Wed 04:59:19 PM 33.3694 -85.5661 204° Southwest 141 162 7,900  Level Atlanta Center
Wed 05:00:19 PM 33.3378 -85.5853 207° Southwest 141 162 7,900  Level Atlanta Center
Wed 05:01:19 PM 33.2981 -85.6069 205° Southwest 141 162 7,900  Level Atlanta Center
Wed 05:02:19 PM 33.2600 -85.6264 203° Southwest 141 162 7,900  Level Atlanta Center
Wed 05:03:19 PM 33.2264 -85.6506 211° Southwest 141 162 7,900  Level Atlanta Center
Wed 05:04:19 PM 33.1908 -85.6672 201° Southwest 141 162 7,900  Level Atlanta Center
Wed 05:05:19 PM 33.1531 -85.6839 200° South 141 162 7,900  Level Atlanta Center
Wed 05:06:19 PM 33.1172 -85.7006 201° Southwest 141 162 7,900  Level Atlanta Center
Wed 05:07:19 PM 33.0814 -85.7172 201° Southwest 141 162 7,900  Level Atlanta Center
Wed 05:08:19 PM 33.0436 -85.7339 200° South 146 168 7,900  Level Atlanta Center
Wed 05:09:19 PM 33.0039 -85.7456 194° South 146 168 7,900  Level Atlanta Center
Wed 05:10:19 PM 32.9703 -85.7622 203° Southwest 146 168 7,900  Level Atlanta Center
Wed 05:11:19 PM 32.9303 -85.7761 196° South 146 168 7,900  Level Atlanta Center
Wed 05:12:19 PM 32.8906 -85.7853 191° South 146 168 7,900  Level Atlanta Center
Wed 05:13:19 PM 32.8486 -85.7969 193° South 146 168 7,900  Level Atlanta Center
Wed 05:14:19 PM 32.8089 -85.8011 185° South 146 168 7,900  Level Atlanta Center
Wed 05:15:19 PM 32.7650 -85.8050 184° South 146 168 7,900  Level Atlanta Center
Wed 05:16:19 PM 32.7253 -85.8092 185° South 146 168 7,900 -6 Level Atlanta Center
Wed 05:18:00 PM 32.6584 -85.8235 190° South  Level FlightAware Approximate
Wed 05:25:00 PM 32.3804 -85.8827 190° South  Level FlightAware Approximate
Wed 05:26:00 PM 32.3407 -85.8911 190° South  Level FlightAware Approximate
Wed 05:27:00 PM 32.3010 -85.8996 190° South  Level FlightAware Approximate
Wed 05:28:00 PM 32.2612 -85.9080 190° South  Level FlightAware Approximate
Wed 05:29:00 PM 32.2215 -85.9164 190° South  Level FlightAware Approximate
Wed 05:30:00 PM 32.1818 -85.9248 190° South  Level FlightAware Approximate
Wed 05:31:00 PM 32.1421 -85.9332 190° South  Level FlightAware Approximate
Wed 05:32:00 PM 32.1024 -85.9416 190° South  Level FlightAware Approximate
Wed 05:32:52 PM 32.0578 -85.9886 192° South 146 168 7,800  Level Jacksonville Center
Wed 05:33:00 PM 32.0626 -85.9500 190° South  Level FlightAware Approximate
Wed 05:33:29 PM 32.0347 -85.9925 188° South 147 169 7,800  Level Jacksonville Center
Wed 05:34:00 PM 32.0229 -85.9583 190° South  Level FlightAware Approximate
Wed 05:34:30 PM 31.9967 -86.0061 197° South 144 166 7,800  Level Jacksonville Center
Wed 05:35:00 PM 31.9830 -85.9668 192° South  Level FlightAware Approximate
Wed 05:35:30 PM 31.9589 -86.0144 191° South 142 163 7,800  Level Jacksonville Center
Wed 05:36:00 PM 31.9435 -85.9766 192° South  Level FlightAware Approximate
Wed 05:36:31 PM 31.9169 -86.0253 192° South 143 165 7,800  Level Jacksonville Center
Wed 05:37:00 PM 31.9041 -85.9865 192° South  Level FlightAware Approximate
Wed 05:37:32 PM 31.8789 -86.0461 205° Southwest 145 167 7,800  Level Jacksonville Center
Wed 05:38:33 PM 31.8431 -86.0619 201° Southwest 142 163 7,800  Level Jacksonville Center
Wed 05:39:33 PM 31.8069 -86.0853 209° Southwest 142 163 7,800  Level Jacksonville Center
Wed 05:40:34 PM 31.7731 -86.1036 205° Southwest 142 163 7,800  Level Jacksonville Center
Wed 05:41:35 PM 31.7369 -86.1244 206° Southwest 138 159 7,800  Level Jacksonville Center
Wed 05:42:36 PM 31.7031 -86.1475 210° Southwest 136 157 7,800  Level Jacksonville Center
Wed 05:43:36 PM 31.6653 -86.1561 191° South 146 168 7,800  Level Jacksonville Center
Wed 05:44:37 PM 31.6233 -86.1619 187° South 150 173 7,800  Level Jacksonville Center
Wed 05:45:38 PM 31.5811 -86.1775 197° South 149 171 7,800  Level Jacksonville Center
Wed 05:46:39 PM 31.5414 -86.1808 184° South 152 175 7,800  Level Jacksonville Center
Wed 05:47:40 PM 31.5033 -86.2014 205° Southwest 147 169 7,800  Level Jacksonville Center
Wed 05:48:40 PM 31.4675 -86.2147 198° South 146 168 7,800  Level Jacksonville Center
Wed 05:49:41 PM 31.4233 -86.2253 192° South 154 177 7,800  Level Jacksonville Center
Wed 05:50:42 PM 31.3814 -86.2311 187° South 151 174 7,800  Level Jacksonville Center
Wed 05:51:43 PM 31.3417 -86.2394 190° South 145 167 7,800  Level Jacksonville Center
Wed 05:52:49 PM 31.2956 -86.2453 186° South 148 170 7,800  Level Jacksonville Center
Wed 05:54:00 PM 31.2479 -86.2492 184° South  Level FlightAware Approximate
Wed 06:01:00 PM 30.9629 -86.2791 196° South  Level FlightAware Approximate
Wed 06:02:00 PM 30.9241 -86.2920 196° South  Level FlightAware Approximate
Wed 06:03:00 PM 30.8853 -86.3049 196° South  Level FlightAware Approximate
Wed 06:04:00 PM 30.8465 -86.3179 196° South  Level FlightAware Approximate
Wed 06:05:00 PM 30.8077 -86.3308 196° South  Level FlightAware Approximate
Wed 06:06:00 PM 30.7694 -86.3456 199° South  Level FlightAware Approximate
Wed 06:07:00 PM 30.7313 -86.3608 199° South  Level FlightAware Approximate
Wed 06:08:00 PM 30.6923 -86.3728 192° South  Level FlightAware Approximate
Wed 06:09:00 PM 30.6528 -86.3826 192° South  Level FlightAware Approximate
Wed 06:10:00 PM 30.6134 -86.3925 192° South  Level FlightAware Approximate
Wed 06:11:00 PM 30.5745 -86.4044 203° Southwest  Level FlightAware Approximate
Wed 06:12:00 PM 30.5375 -86.4230 203° Southwest  Level FlightAware Approximate
Wed 06:13:00 PM 30.5167 -86.4333 203° Southwest  Level FlightAware Approximate
Wed 06:14:00 PM 30.5196 -86.4383 203° Southwest  Level Estimated
Wed 06:15:00 PM 30.5167 -86.4333 203° Southwest  Level FlightAware Approximate
Wed 06:16:00 PM 30.5196 -86.4383 203° Southwest  Level Estimated
Wed 06:17:00 PM 30.5167 -86.4333 203° Southwest  Level FlightAware Approximate
Wed 06:18:00 PM 30.5196 -86.4383 203° Southwest  Level Estimated
Wed 06:19:00 PM 30.5167 -86.4333 203° Southwest  Level FlightAware Approximate
Wed 06:20:00 PM 30.5196 -86.4383 203° Southwest  Level Estimated
Wed 06:21:00 PM 30.5167 -86.4333 203° Southwest  Level FlightAware Approximate

Login

Don't have an account? Register now (free) for customized features, flight alerts, and more!